Terminal Aerodrome Forecast
Issued by NWS

Current Version | Previous Version | Text Only | Print | Product List | Glossary Off
Versions: 1 2 3 4 5 6 7 8 9 10 11 12 13 14 15 16 17 18 19

000
FTUS41 KILN 270859 AAA
TAFLUK
TAF AMD
KLUK 270859Z 2709/2806 22003KT 1/4SM FG VV002
     FM271200 00000KT 1SM BR SCT025 BKN040
     FM271300 00000KT P6SM SCT025 BKN060
     FM271600 14004KT P6SM SCT025 BKN130
     FM272000 18006KT P6SM VCSH SCT025 BKN090
     FM280000 16006KT P6SM -SHRA VCTS BKN025CB OVC080=

USA.gov is the U.S. government's official web portal to all federal, state and local government web resources and services.